Time;durP1;ratioP1;P1;durP2;ratioP2;P2;SDS_P1;SDS_P2;PMS_P1;PMS_P2;Temp;Humidity;BMP_temperature;BMP_pressure;BME280_temperature;BME280_humidity;BME280_pressure;Samples;Min_cycle;Max_cycle;Signal;HPM_P1;HPM_P2
2021/12/17 00:01:44;;;;;;;;;;;8.10;99.90;;;;;;8397663;28;19947;-69
2021/12/17 00:05:54;;;;;;;;;;;8.10;99.90;;;;;;8384454;28;19932;-69
2021/12/17 00:09:58;;;;;;;;;;;8.00;99.90;;;;;;8351607;28;19929;-69
2021/12/17 00:13:59;;;;;;;;;;;8.00;99.90;;;;;;8356551;28;19924;-69
2021/12/17 00:18:10;;;;;;;;;;;8.00;99.90;;;;;;8384622;28;19963;-70
2021/12/17 00:48:25;;;;;;;;;;;8.10;99.90;;;;;;8383546;28;19963;-69
2021/12/17 00:52:30;;;;;;;;;;;8.10;99.90;;;;;;8384216;28;19920;-69
2021/12/17 00:56:32;;;;;;;;;;;8.10;99.90;;;;;;8389979;28;19983;-69
2021/12/17 01:00:33;;;;;;;;;;;8.10;99.90;;;;;;8400799;28;19925;-69
2021/12/17 01:04:36;;;;;;;;;;;8.10;99.90;;;;;;8386956;28;20385;-69
2021/12/17 01:08:38;;;;;;;;;;;8.10;99.90;;;;;;8364787;28;20302;-69
2021/12/17 01:12:40;;;;;;;;;;;8.10;99.90;;;;;;8371814;28;19924;-69
2021/12/17 01:16:42;;;;;;;;;;;8.10;99.90;;;;;;8383537;28;20007;-70
2021/12/17 01:21:06;;;;;;;;;;;8.10;99.90;;;;;;8379580;28;20395;-69
2021/12/17 01:25:14;;;;;;;;;;;8.10;99.90;;;;;;8391054;28;19974;-69
2021/12/17 01:42:14;;;;;;;;;;;8.10;99.90;;;;;;8383854;28;19921;-69
2021/12/17 01:46:27;;;;;;;;;;;8.10;99.90;;;;;;8363174;28;19927;-69
2021/12/17 01:59:35;;;;;;;;;;;8.10;99.90;;;;;;8377006;28;20376;-69
2021/12/17 02:03:37;;;;;;;;;;;8.10;99.90;;;;;;8382665;28;19982;-69
2021/12/17 02:07:39;;;;;;;;;;;8.10;99.90;;;;;;8389229;28;19925;-69
2021/12/17 02:20:25;;;;;;;;;;;8.10;99.90;;;;;;8386603;28;20085;-69
2021/12/17 02:28:50;;;;;;;;;;;8.10;99.90;;;;;;8383657;28;20337;-69
2021/12/17 02:32:52;;;;;;;;;;;8.10;99.90;;;;;;8381853;28;19920;-69
2021/12/17 02:36:56;;;;;;;;;;;8.10;99.90;;;;;;8384127;28;19974;-69
2021/12/17 02:45:35;;;;;;;;;;;8.10;99.90;;;;;;8379372;28;19931;-69
2021/12/17 02:49:40;;;;;;;;;;;8.10;99.90;;;;;;8375704;28;19920;-70
2021/12/17 02:53:42;;;;;;;;;;;8.10;99.90;;;;;;8389002;28;20371;-69
2021/12/17 02:57:44;;;;;;;;;;;8.20;99.90;;;;;;8380659;28;19921;-69
2021/12/17 03:01:46;;;;;;;;;;;8.20;99.90;;;;;;8367769;28;19968;-69
2021/12/17 03:05:47;;;;;;;;;;;8.20;99.90;;;;;;8384284;28;19916;-69
2021/12/17 03:10:03;;;;;;;;;;;8.20;99.90;;;;;;8386090;28;19927;-69
2021/12/17 03:14:05;;;;;;;;;;;8.20;99.90;;;;;;8381581;28;19920;-69
2021/12/17 03:26:29;;;;;;;;;;;8.20;99.90;;;;;;8395904;28;20029;-69
2021/12/17 03:30:30;;;;;;;;;;;8.30;99.90;;;;;;8384084;28;19924;-69
2021/12/17 03:34:32;;;;;;;;;;;8.30;99.90;;;;;;8389283;28;19925;-69
2021/12/17 03:38:34;;;;;;;;;;;8.30;99.90;;;;;;8378676;28;19921;-69
2021/12/17 03:42:35;;;;;;;;;;;8.30;99.90;;;;;;8373157;28;19920;-70
2021/12/17 03:46:37;;;;;;;;;;;8.30;99.90;;;;;;8373515;28;20336;-69
2021/12/17 03:50:38;;;;;;;;;;;8.40;99.90;;;;;;8370840;28;19972;-69
2021/12/17 03:54:40;;;;;;;;;;;8.40;99.90;;;;;;8389912;28;19979;-69
2021/12/17 03:58:42;;;;;;;;;;;8.40;99.90;;;;;;8381869;28;19920;-69
2021/12/17 04:02:44;;;;;;;;;;;8.40;99.90;;;;;;8384745;28;19999;-69
2021/12/17 04:06:46;;;;;;;;;;;8.50;99.90;;;;;;8382888;28;19927;-69
2021/12/17 04:10:51;;;;;;;;;;;8.50;99.90;;;;;;8389970;28;20408;-69
2021/12/17 04:14:52;;;;;;;;;;;8.50;99.90;;;;;;8392490;28;19964;-69
2021/12/17 04:18:54;;;;;;;;;;;8.50;99.90;;;;;;8380414;28;19970;-70
2021/12/17 04:22:56;;;;;;;;;;;8.50;99.90;;;;;;8395187;28;19924;-69
2021/12/17 04:26:57;;;;;;;;;;;8.50;99.90;;;;;;8375561;28;19943;-69
2021/12/17 04:30:59;;;;;;;;;;;8.50;99.90;;;;;;8383956;28;20028;-69
2021/12/17 04:35:01;;;;;;;;;;;8.50;99.90;;;;;;8386227;28;19967;-69
2021/12/17 04:39:02;;;;;;;;;;;8.50;99.90;;;;;;8382354;28;20022;-69
2021/12/17 04:43:28;;;;;;;;;;;8.50;99.90;;;;;;8393579;28;19931;-69
2021/12/17 05:00:31;;;;;;;;;;;8.40;99.90;;;;;;8382452;28;20408;-69
2021/12/17 05:04:33;;;;;;;;;;;8.40;99.90;;;;;;8393532;28;19932;-69
2021/12/17 05:08:35;;;;;;;;;;;8.40;99.90;;;;;;8384373;28;19935;-69
2021/12/17 05:21:17;;;;;;;;;;;8.40;99.90;;;;;;8385106;28;19924;-69
2021/12/17 05:25:19;;;;;;;;;;;8.40;99.90;;;;;;8381849;28;20352;-69
2021/12/17 05:29:21;;;;;;;;;;;8.40;99.90;;;;;;8367806;28;19968;-69
2021/12/17 05:33:24;;;;;;;;;;;8.40;99.90;;;;;;8399522;28;19935;-69
2021/12/17 05:37:26;;;;;;;;;;;8.40;99.90;;;;;;8381718;28;19970;-69
2021/12/17 05:41:27;;;;;;;;;;;8.40;99.90;;;;;;8373758;28;19955;-69
2021/12/17 05:45:34;;;;;;;;;;;8.30;99.90;;;;;;8371651;28;19969;-70
2021/12/17 05:49:36;;;;;;;;;;;8.30;99.90;;;;;;8384614;28;20438;-69
2021/12/17 05:53:37;;;;;;;;;;;8.30;99.90;;;;;;8391294;28;19920;-69
2021/12/17 05:57:39;;;;;;;;;;;8.30;99.90;;;;;;8369619;28;19960;-69
2021/12/17 06:01:40;;;;;;;;;;;8.40;99.90;;;;;;8382157;28;20557;-69
2021/12/17 06:05:42;;;;;;;;;;;8.30;99.90;;;;;;8382057;28;19927;-69
2021/12/17 06:09:44;;;;;;;;;;;8.30;99.90;;;;;;8386221;28;19929;-69
2021/12/17 06:13:46;;;;;;;;;;;8.40;99.90;;;;;;8377109;28;19921;-69
2021/12/17 06:17:48;;;;;;;;;;;8.40;99.90;;;;;;8382830;28;19928;-69
2021/12/17 06:21:49;;;;;;;;;;;8.40;99.90;;;;;;8387240;28;19924;-69
2021/12/17 06:25:51;;;;;;;;;;;8.40;99.90;;;;;;8388914;28;19954;-69
2021/12/17 06:29:53;;;;;;;;;;;8.40;99.90;;;;;;8386137;28;19932;-69
2021/12/17 06:33:54;;;;;;;;;;;8.40;99.90;;;;;;8374016;28;20370;-69
2021/12/17 06:37:56;;;;;;;;;;;8.40;99.90;;;;;;8379316;28;19964;-69
2021/12/17 06:42:02;;;;;;;;;;;8.40;99.90;;;;;;8374975;28;20033;-69
2021/12/17 06:59:35;;;;;;;;;;;8.30;99.90;;;;;;8347381;28;19940;-70
2021/12/17 07:33:35;;;;;;;;;;;8.30;99.90;;;;;;8346892;28;20962;-70
2021/12/17 07:41:40;;;;;;;;;;;8.30;99.90;;;;;;8348686;28;19921;-69
2021/12/17 07:45:41;;;;;;;;;;;8.30;99.90;;;;;;8363821;28;20923;-70
2021/12/17 07:49:43;;;;;;;;;;;8.30;99.90;;;;;;8354539;28;19963;-70
2021/12/17 07:53:45;;;;;;;;;;;8.30;99.90;;;;;;8383224;28;20058;-70
2021/12/17 07:57:47;;;;;;;;;;;8.30;99.90;;;;;;8386376;28;19959;-69
2021/12/17 08:01:48;;;;;;;;;;;8.30;99.90;;;;;;8360148;28;19948;-70
2021/12/17 08:05:50;;;;;;;;;;;8.30;99.90;;;;;;8384352;28;19927;-70
2021/12/17 08:09:52;;;;;;;;;;;8.30;99.90;;;;;;8362382;28;20026;-69
2021/12/17 08:13:56;;;;;;;;;;;8.30;99.90;;;;;;8382924;28;19928;-70
2021/12/17 08:18:21;;;;;;;;;;;8.30;99.90;;;;;;8364899;28;19960;-69
2021/12/17 08:26:54;;;;;;;;;;;8.40;99.90;;;;;;8383470;28;20949;-70
2021/12/17 08:30:56;;;;;;;;;;;8.40;99.90;;;;;;8366471;28;19928;-70
2021/12/17 08:34:58;;;;;;;;;;;8.50;99.90;;;;;;8383400;28;19933;-69
2021/12/17 08:38:59;;;;;;;;;;;8.50;99.90;;;;;;8383301;28;19932;-69
2021/12/17 08:43:01;;;;;;;;;;;8.50;99.90;;;;;;8383523;28;19921;-70
2021/12/17 08:47:03;;;;;;;;;;;8.60;99.90;;;;;;8384300;28;19920;-69
2021/12/17 08:51:06;;;;;;;;;;;8.60;99.90;;;;;;8383637;28;19962;-69
2021/12/17 08:55:10;;;;;;;;;;;8.60;99.90;;;;;;8382887;28;20007;-70
2021/12/17 08:59:14;;;;;;;;;;;8.60;99.90;;;;;;8388691;28;20280;-70
2021/12/17 09:03:16;;;;;;;;;;;8.70;99.90;;;;;;8389020;28;20664;-70
2021/12/17 09:07:17;;;;;;;;;;;8.60;99.90;;;;;;8386817;28;19932;-70
2021/12/17 09:11:19;;;;;;;;;;;8.60;99.90;;;;;;8389656;28;19927;-71
2021/12/17 09:15:21;;;;;;;;;;;8.60;99.90;;;;;;8366070;28;19963;-71
2021/12/17 09:19:22;;;;;;;;;;;8.60;99.90;;;;;;8390214;28;19982;-70
2021/12/17 09:23:24;;;;;;;;;;;8.70;99.90;;;;;;8387403;28;20007;-70
2021/12/17 09:27:27;;;;;;;;;;;8.70;99.90;;;;;;8391465;28;20205;-70
2021/12/17 09:31:28;;;;;;;;;;;8.70;99.90;;;;;;8388649;28;19926;-70
2021/12/17 09:35:30;;;;;;;;;;;8.60;99.90;;;;;;8387843;28;20015;-70
2021/12/17 09:39:32;;;;;;;;;;;8.60;99.90;;;;;;8388518;28;19920;-69
2021/12/17 09:43:36;;;;;;;;;;;8.60;99.90;;;;;;8388672;28;19920;-70
2021/12/17 09:47:37;;;;;;;;;;;8.60;99.90;;;;;;8388082;28;20387;-70
2021/12/17 09:51:39;;;;;;;;;;;8.60;99.90;;;;;;8371864;28;19924;-70
2021/12/17 09:55:41;;;;;;;;;;;8.60;99.90;;;;;;8388807;28;19982;-70
2021/12/17 09:59:42;;;;;;;;;;;8.70;99.90;;;;;;8389095;28;19971;-70
2021/12/17 10:03:45;;;;;;;;;;;8.70;99.90;;;;;;8385928;28;19920;-70
2021/12/17 10:07:51;;;;;;;;;;;8.70;99.90;;;;;;8386684;28;19928;-70
2021/12/17 10:12:06;;;;;;;;;;;8.80;99.90;;;;;;8369577;28;20393;-70
2021/12/17 10:16:08;;;;;;;;;;;8.80;99.90;;;;;;8386196;28;19927;-70
2021/12/17 10:20:10;;;;;;;;;;;8.90;99.90;;;;;;8386338;28;20439;-71
2021/12/17 10:24:22;;;;;;;;;;;8.90;99.90;;;;;;8383644;28;19958;-71
2021/12/17 10:28:24;;;;;;;;;;;8.90;99.90;;;;;;8386447;28;19921;-70
2021/12/17 10:32:27;;;;;;;;;;;8.90;99.90;;;;;;8387541;28;20526;-70
2021/12/17 10:36:37;;;;;;;;;;;8.90;99.90;;;;;;8386184;28;20252;-70
2021/12/17 10:40:52;;;;;;;;;;;8.90;99.90;;;;;;8362283;28;19925;-70
2021/12/17 10:45:11;;;;;;;;;;;8.90;99.90;;;;;;8386939;28;19959;-70
2021/12/17 10:49:17;;;;;;;;;;;8.90;99.90;;;;;;8387799;28;19931;-70
2021/12/17 10:53:25;;;;;;;;;;;8.90;99.90;;;;;;8386247;28;19982;-70
2021/12/17 10:57:29;;;;;;;;;;;8.90;99.90;;;;;;8383586;28;19920;-70
2021/12/17 11:01:36;;;;;;;;;;;8.90;99.90;;;;;;8388126;28;19920;-70
2021/12/17 11:05:38;;;;;;;;;;;8.80;99.90;;;;;;8385955;28;20296;-70
2021/12/17 11:09:42;;;;;;;;;;;8.90;99.90;;;;;;8385284;28;19924;-70
2021/12/17 11:13:58;;;;;;;;;;;8.90;99.90;;;;;;8379544;28;19920;-70
2021/12/17 11:18:01;;;;;;;;;;;8.90;99.90;;;;;;8373631;28;19985;-70
2021/12/17 11:22:03;;;;;;;;;;;9.00;99.90;;;;;;8371362;28;20168;-70
2021/12/17 11:26:04;;;;;;;;;;;9.00;99.90;;;;;;8371198;28;20008;-70
2021/12/17 11:30:26;;;;;;;;;;;8.90;99.90;;;;;;8369502;28;19931;-70
2021/12/17 11:34:30;;;;;;;;;;;8.90;99.90;;;;;;8358544;28;19939;-70
2021/12/17 11:38:46;;;;;;;;;;;8.90;99.90;;;;;;8374651;28;19931;-70
2021/12/17 11:43:26;;;;;;;;;;;8.90;99.90;;;;;;8371687;28;20007;-70
2021/12/17 11:47:34;;;;;;;;;;;8.90;99.90;;;;;;8364032;28;19920;-71
2021/12/17 11:51:36;;;;;;;;;;;8.90;99.90;;;;;;8385971;28;19970;-70
2021/12/17 11:55:37;;;;;;;;;;;8.90;99.90;;;;;;8363261;28;19960;-70
2021/12/17 11:59:41;;;;;;;;;;;8.90;99.90;;;;;;8374693;28;20039;-70
2021/12/17 12:03:42;;;;;;;;;;;9.00;99.90;;;;;;8373333;28;19959;-70
2021/12/17 12:07:44;;;;;;;;;;;9.00;99.90;;;;;;8383627;28;19943;-70
2021/12/17 12:12:05;;;;;;;;;;;9.00;99.90;;;;;;8365229;28;20008;-70
2021/12/17 12:16:08;;;;;;;;;;;9.00;99.90;;;;;;8366457;28;20368;-70
2021/12/17 12:20:10;;;;;;;;;;;9.00;99.90;;;;;;8385437;28;19927;-70
2021/12/17 12:24:12;;;;;;;;;;;9.00;99.90;;;;;;8384725;28;19932;-69
2021/12/17 12:28:15;;;;;;;;;;;9.00;99.90;;;;;;8383854;28;19920;-70
2021/12/17 12:32:20;;;;;;;;;;;9.00;99.90;;;;;;8385338;28;20605;-70
2021/12/17 12:36:42;;;;;;;;;;;9.10;99.90;;;;;;8392127;28;19920;-69
2021/12/17 12:40:55;;;;;;;;;;;9.10;99.90;;;;;;8392730;28;19928;-70
2021/12/17 12:44:56;;;;;;;;;;;9.10;99.90;;;;;;8382707;28;19921;-70
2021/12/17 12:48:58;;;;;;;;;;;9.10;99.90;;;;;;8389646;28;20417;-70
2021/12/17 12:53:03;;;;;;;;;;;9.10;99.90;;;;;;8365265;28;19929;-70
2021/12/17 12:57:05;;;;;;;;;;;9.00;99.90;;;;;;8388669;28;19960;-69
2021/12/17 13:01:08;;;;;;;;;;;9.00;99.90;;;;;;8385607;28;19931;-70
2021/12/17 13:05:11;;;;;;;;;;;9.00;99.90;;;;;;8388927;28;20354;-70
2021/12/17 13:09:13;;;;;;;;;;;9.10;99.90;;;;;;8369476;28;19920;-70
2021/12/17 13:13:29;;;;;;;;;;;9.10;99.90;;;;;;8387227;28;19921;-69
2021/12/17 13:22:24;;;;;;;;;;;9.10;99.90;;;;;;8315713;28;19924;-70
2021/12/17 13:26:24;;;;;;;;;;;9.20;99.90;;;;;;8386705;28;19967;-69
2021/12/17 13:30:27;;;;;;;;;;;9.20;99.90;;;;;;8381058;28;19920;-70
2021/12/17 13:34:35;;;;;;;;;;;9.30;99.90;;;;;;8386811;28;20269;-70
2021/12/17 13:38:40;;;;;;;;;;;9.30;99.90;;;;;;8363594;28;19920;-69
2021/12/17 13:42:43;;;;;;;;;;;9.40;99.90;;;;;;8383327;28;19968;-70
2021/12/17 13:46:44;;;;;;;;;;;9.40;99.90;;;;;;8377626;28;19924;-69
2021/12/17 13:50:50;;;;;;;;;;;9.50;99.90;;;;;;8388769;28;19925;-70
2021/12/17 13:54:54;;;;;;;;;;;9.50;99.90;;;;;;8388337;28;21429;-70
2021/12/17 13:59:00;;;;;;;;;;;9.50;99.90;;;;;;8389465;28;19964;-71
2021/12/17 14:03:02;;;;;;;;;;;9.50;99.90;;;;;;8386016;28;19990;-70
2021/12/17 14:07:05;;;;;;;;;;;9.50;99.90;;;;;;8388658;28;19928;-70
2021/12/17 14:11:21;;;;;;;;;;;9.50;99.90;;;;;;8387355;28;19979;-70
2021/12/17 14:15:41;;;;;;;;;;;9.50;99.90;;;;;;8369024;28;19924;-70
2021/12/17 14:19:44;;;;;;;;;;;9.60;99.90;;;;;;8382248;28;20214;-70
2021/12/17 14:23:45;;;;;;;;;;;9.60;99.90;;;;;;8375221;28;19991;-70
2021/12/17 14:27:47;;;;;;;;;;;9.50;99.90;;;;;;8360629;28;20380;-70
2021/12/17 14:31:57;;;;;;;;;;;9.60;99.90;;;;;;8369022;28;20291;-69
2021/12/17 14:36:00;;;;;;;;;;;9.50;99.90;;;;;;8349623;28;19932;-69
2021/12/17 14:40:02;;;;;;;;;;;9.50;99.90;;;;;;8377094;28;19932;-70
2021/12/17 14:44:35;;;;;;;;;;;9.50;99.90;;;;;;8380483;28;19999;-70
2021/12/17 14:48:43;;;;;;;;;;;9.50;99.90;;;;;;8377594;28;20299;-70
2021/12/17 14:57:25;;;;;;;;;;;9.40;99.90;;;;;;8386324;28;20411;-70
2021/12/17 15:02:01;;;;;;;;;;;9.40;99.90;;;;;;8350312;28;19959;-70
2021/12/17 15:06:01;;;;;;;;;;;9.40;99.90;;;;;;8383078;28;19935;-70
2021/12/17 15:10:06;;;;;;;;;;;9.40;99.90;;;;;;8381988;28;19976;-69
2021/12/17 15:14:07;;;;;;;;;;;9.40;99.90;;;;;;8357248;28;19925;-70
2021/12/17 15:18:14;;;;;;;;;;;9.30;99.90;;;;;;8357744;28;19968;-70
2021/12/17 15:22:16;;;;;;;;;;;9.30;99.90;;;;;;8359745;28;19924;-69
2021/12/17 15:26:18;;;;;;;;;;;9.30;99.90;;;;;;8379424;28;19935;-70
2021/12/17 15:30:25;;;;;;;;;;;9.30;99.90;;;;;;8379808;28;19924;-70
2021/12/17 15:34:26;;;;;;;;;;;9.30;99.90;;;;;;8364458;28;19970;-70
2021/12/17 15:38:28;;;;;;;;;;;9.30;99.90;;;;;;8366220;28;19943;-69
2021/12/17 15:42:29;;;;;;;;;;;9.30;99.90;;;;;;8384538;28;19964;-70
2021/12/17 15:46:31;;;;;;;;;;;9.30;99.90;;;;;;8366804;28;19925;-69
2021/12/17 15:50:33;;;;;;;;;;;9.30;99.90;;;;;;8383273;28;19990;-70
2021/12/17 15:54:36;;;;;;;;;;;9.30;99.90;;;;;;8363368;28;19928;-70
2021/12/17 15:58:37;;;;;;;;;;;9.20;99.90;;;;;;8379642;28;19978;-70
2021/12/17 16:02:42;;;;;;;;;;;9.30;99.90;;;;;;8377335;28;19975;-70
2021/12/17 16:06:43;;;;;;;;;;;9.30;99.90;;;;;;8362053;28;19982;-70
2021/12/17 16:11:12;;;;;;;;;;;9.30;99.90;;;;;;8395331;28;19932;-70
2021/12/17 16:23:48;;;;;;;;;;;9.30;99.90;;;;;;8376842;28;20063;-70
2021/12/17 16:27:50;;;;;;;;;;;9.30;99.90;;;;;;8380615;28;19932;-71
2021/12/17 16:31:52;;;;;;;;;;;9.30;99.90;;;;;;8378008;28;19968;-70
2021/12/17 16:35:53;;;;;;;;;;;9.30;99.90;;;;;;8350269;28;19967;-70
2021/12/17 16:39:55;;;;;;;;;;;9.30;99.90;;;;;;8358394;28;19933;-70
2021/12/17 16:44:09;;;;;;;;;;;9.30;99.90;;;;;;8380943;28;19971;-70
2021/12/17 16:48:11;;;;;;;;;;;9.30;99.90;;;;;;8378792;28;19990;-70
2021/12/17 16:52:12;;;;;;;;;;;9.30;99.90;;;;;;8360570;28;19931;-70
2021/12/17 16:56:15;;;;;;;;;;;9.30;99.90;;;;;;8351007;28;19933;-71
2021/12/17 17:00:16;;;;;;;;;;;9.30;99.90;;;;;;8376894;28;20526;-71
2021/12/17 17:04:18;;;;;;;;;;;9.30;99.90;;;;;;8376081;28;20384;-70
2021/12/17 17:08:20;;;;;;;;;;;9.20;99.90;;;;;;8375899;28;20007;-71
2021/12/17 17:12:24;;;;;;;;;;;9.20;99.90;;;;;;8350595;28;19956;-71
2021/12/17 17:16:26;;;;;;;;;;;9.20;99.90;;;;;;8350045;28;20015;-70
2021/12/17 17:20:29;;;;;;;;;;;9.20;99.90;;;;;;8363041;28;19978;-71
2021/12/17 17:24:32;;;;;;;;;;;9.20;99.90;;;;;;8366632;28;19968;-70
2021/12/17 17:28:34;;;;;;;;;;;9.20;99.90;;;;;;8378798;28;19963;-70
2021/12/17 17:32:36;;;;;;;;;;;9.20;99.90;;;;;;8359269;28;19928;-71
2021/12/17 17:36:39;;;;;;;;;;;9.20;99.90;;;;;;8373907;28;19997;-71
2021/12/17 17:40:40;;;;;;;;;;;9.20;99.90;;;;;;8371424;28;19972;-70
2021/12/17 17:44:43;;;;;;;;;;;9.20;99.90;;;;;;8360326;28;19935;-70
2021/12/17 17:48:44;;;;;;;;;;;9.30;99.90;;;;;;8352284;28;19933;-72
2021/12/17 17:52:46;;;;;;;;;;;9.20;99.90;;;;;;8370228;28;19928;-70
2021/12/17 17:56:48;;;;;;;;;;;9.20;99.90;;;;;;8360121;28;19967;-70
2021/12/17 18:00:49;;;;;;;;;;;9.30;99.90;;;;;;8362742;28;20046;-70
2021/12/17 18:04:51;;;;;;;;;;;9.20;99.90;;;;;;8367778;28;19925;-71
2021/12/17 18:08:52;;;;;;;;;;;9.20;99.90;;;;;;8382030;28;20023;-70
2021/12/17 18:12:55;;;;;;;;;;;9.20;99.90;;;;;;8367121;28;19972;-70
2021/12/17 18:16:56;;;;;;;;;;;9.20;99.90;;;;;;8364862;28;19964;-70
2021/12/17 18:20:58;;;;;;;;;;;9.20;99.90;;;;;;8345172;28;19940;-71
2021/12/17 18:25:00;;;;;;;;;;;9.20;99.90;;;;;;8345388;28;20012;-70
2021/12/17 18:29:02;;;;;;;;;;;9.20;99.90;;;;;;8361987;28;19925;-70
2021/12/17 18:33:06;;;;;;;;;;;9.20;99.90;;;;;;8361401;28;19983;-70
2021/12/17 18:37:07;;;;;;;;;;;9.20;99.90;;;;;;8357912;28;19928;-70
2021/12/17 18:41:18;;;;;;;;;;;9.20;99.90;;;;;;8366472;28;20446;-70
2021/12/17 18:45:20;;;;;;;;;;;9.20;99.90;;;;;;8343434;28;19978;-69
2021/12/17 18:49:21;;;;;;;;;;;9.20;99.90;;;;;;8358040;28;20039;-70
2021/12/17 18:53:24;;;;;;;;;;;9.20;99.90;;;;;;8358597;28;19950;-71
2021/12/17 18:57:25;;;;;;;;;;;9.20;99.90;;;;;;8361638;28;23275;-70
2021/12/17 19:01:27;;;;;;;;;;;9.20;99.90;;;;;;8357926;28;19968;-70
2021/12/17 19:05:29;;;;;;;;;;;9.20;99.90;;;;;;8378683;28;19983;-70
2021/12/17 19:09:31;;;;;;;;;;;9.20;99.90;;;;;;8383875;28;19963;-71
2021/12/17 19:13:32;;;;;;;;;;;9.20;99.90;;;;;;8363208;28;19932;-70
2021/12/17 19:17:34;;;;;;;;;;;9.20;99.90;;;;;;8380702;28;19971;-71
2021/12/17 19:21:54;;;;;;;;;;;9.20;99.90;;;;;;8376377;28;19982;-71
2021/12/17 19:25:56;;;;;;;;;;;9.20;99.90;;;;;;8380651;28;19928;-70
2021/12/17 19:29:57;;;;;;;;;;;9.20;99.90;;;;;;8376319;28;19975;-70
2021/12/17 19:33:59;;;;;;;;;;;9.20;99.90;;;;;;8357982;28;20281;-70
2021/12/17 19:38:02;;;;;;;;;;;9.20;99.90;;;;;;8379045;28;19925;-71
2021/12/17 19:42:03;;;;;;;;;;;9.20;99.90;;;;;;8348824;28;19968;-70
2021/12/17 19:46:07;;;;;;;;;;;9.20;99.90;;;;;;8352992;28;20024;-70
2021/12/17 19:50:13;;;;;;;;;;;9.20;99.90;;;;;;8382287;28;19931;-70
2021/12/17 19:54:15;;;;;;;;;;;9.20;99.90;;;;;;8374418;28;20337;-70
2021/12/17 19:58:16;;;;;;;;;;;9.20;99.90;;;;;;8376469;28;20062;-71
2021/12/17 20:02:19;;;;;;;;;;;9.20;99.90;;;;;;8377335;28;19928;-70
2021/12/17 20:06:21;;;;;;;;;;;9.20;99.90;;;;;;8355875;28;19929;-70
2021/12/17 20:10:23;;;;;;;;;;;9.20;99.90;;;;;;8363772;28;19928;-70
2021/12/17 20:14:24;;;;;;;;;;;9.20;99.90;;;;;;8372262;28;20095;-70
2021/12/17 20:18:27;;;;;;;;;;;9.20;99.90;;;;;;8345547;28;19955;-70
2021/12/17 20:22:28;;;;;;;;;;;9.20;99.90;;;;;;8349099;28;20291;-70
2021/12/17 20:26:30;;;;;;;;;;;9.20;99.90;;;;;;8369704;28;20435;-70
2021/12/17 20:30:32;;;;;;;;;;;9.20;99.90;;;;;;8371684;28;19925;-71
2021/12/17 20:34:35;;;;;;;;;;;9.20;99.90;;;;;;8374295;28;20060;-70
2021/12/17 20:38:37;;;;;;;;;;;9.20;99.90;;;;;;8375588;28;19940;-70
2021/12/17 20:46:41;;;;;;;;;;;9.20;99.90;;;;;;8376111;28;20395;-70
2021/12/17 20:50:44;;;;;;;;;;;9.20;99.90;;;;;;8379225;28;20035;-70
2021/12/17 20:54:45;;;;;;;;;;;9.20;99.90;;;;;;8381416;28;20063;-70
2021/12/17 20:58:51;;;;;;;;;;;9.20;99.90;;;;;;8385673;28;19935;-70
2021/12/17 21:02:54;;;;;;;;;;;9.20;99.90;;;;;;8380895;28;20364;-71
2021/12/17 21:06:56;;;;;;;;;;;9.20;99.90;;;;;;8362829;28;19979;-70
2021/12/17 21:11:02;;;;;;;;;;;9.20;99.90;;;;;;8359425;28;20020;-71
2021/12/17 21:15:05;;;;;;;;;;;9.20;99.90;;;;;;8368022;28;19924;-70
2021/12/17 21:19:06;;;;;;;;;;;9.20;99.90;;;;;;8365940;28;20622;-70
2021/12/17 21:23:10;;;;;;;;;;;9.20;99.90;;;;;;8395198;28;20323;-71
2021/12/17 21:27:11;;;;;;;;;;;9.20;99.90;;;;;;8381809;28;20415;-71
2021/12/17 21:31:13;;;;;;;;;;;9.20;99.90;;;;;;8369889;28;20478;-71
2021/12/17 21:35:16;;;;;;;;;;;9.20;99.90;;;;;;8373759;28;20046;-70
2021/12/17 21:39:18;;;;;;;;;;;9.20;99.90;;;;;;8352234;28;20680;-70
2021/12/17 21:43:19;;;;;;;;;;;9.20;99.90;;;;;;8377436;28;19974;-70
2021/12/17 21:47:21;;;;;;;;;;;9.20;99.90;;;;;;8364822;28;19964;-70
2021/12/17 21:51:23;;;;;;;;;;;9.20;99.90;;;;;;8387054;28;19924;-71
2021/12/17 21:55:25;;;;;;;;;;;9.20;99.90;;;;;;8382141;28;20633;-71
2021/12/17 21:59:26;;;;;;;;;;;9.20;99.90;;;;;;8379396;28;19971;-70
2021/12/17 22:03:30;;;;;;;;;;;9.20;99.90;;;;;;8380792;28;20941;-70
2021/12/17 22:07:32;;;;;;;;;;;9.20;99.90;;;;;;8364271;28;20279;-71
2021/12/17 22:11:34;;;;;;;;;;;9.20;99.90;;;;;;8359631;28;19925;-71
2021/12/17 22:15:36;;;;;;;;;;;9.20;99.90;;;;;;8365135;28;19976;-70
2021/12/17 22:19:44;;;;;;;;;;;9.20;99.90;;;;;;8347208;28;20023;-70
2021/12/17 22:23:47;;;;;;;;;;;9.20;99.90;;;;;;8363290;28;20368;-70
2021/12/17 22:27:48;;;;;;;;;;;9.20;99.90;;;;;;8374030;28;20343;-71
2021/12/17 22:31:50;;;;;;;;;;;9.20;99.90;;;;;;8372563;28;19925;-70
2021/12/17 22:35:52;;;;;;;;;;;9.20;99.90;;;;;;8385368;28;19931;-70
2021/12/17 22:39:54;;;;;;;;;;;9.20;99.90;;;;;;8351839;28;20514;-70
2021/12/17 22:43:57;;;;;;;;;;;9.20;99.90;;;;;;8381207;28;20009;-70
2021/12/17 22:48:00;;;;;;;;;;;9.20;99.90;;;;;;8373761;28;19925;-70
2021/12/17 22:52:02;;;;;;;;;;;9.20;99.90;;;;;;8366090;28;20278;-70
2021/12/17 22:56:06;;;;;;;;;;;9.20;99.90;;;;;;8357605;28;20051;-71
2021/12/17 23:00:09;;;;;;;;;;;9.20;99.90;;;;;;8379786;28;19935;-71
2021/12/17 23:04:19;;;;;;;;;;;9.10;99.90;;;;;;8386421;28;19990;-70
2021/12/17 23:08:44;;;;;;;;;;;9.10;99.90;;;;;;8372287;28;19931;-70
2021/12/17 23:12:45;;;;;;;;;;;9.10;99.90;;;;;;8366942;28;19979;-71
2021/12/17 23:16:47;;;;;;;;;;;9.10;99.90;;;;;;8352726;28;20446;-70
2021/12/17 23:20:49;;;;;;;;;;;9.10;99.90;;;;;;8359372;28;20373;-71
2021/12/17 23:24:51;;;;;;;;;;;9.10;99.90;;;;;;8373334;28;19975;-70
2021/12/17 23:28:55;;;;;;;;;;;9.10;99.90;;;;;;8371456;28;19933;-70
2021/12/17 23:33:00;;;;;;;;;;;9.10;99.90;;;;;;8392836;28;19928;-69
2021/12/17 23:37:03;;;;;;;;;;;9.10;99.90;;;;;;8376392;28;19925;-71
2021/12/17 23:41:05;;;;;;;;;;;9.10;99.90;;;;;;8375539;28;20368;-69
2021/12/17 23:45:08;;;;;;;;;;;9.10;99.90;;;;;;8376484;28;20384;-69
2021/12/17 23:49:10;;;;;;;;;;;9.10;99.90;;;;;;8360993;28;19976;-70
2021/12/17 23:53:12;;;;;;;;;;;9.10;99.90;;;;;;8380231;28;19935;-71
2021/12/17 23:57:13;;;;;;;;;;;9.10;99.90;;;;;;8363265;28;19929;-70
